sensor_id;sensor_type;location;lat;lon;timestamp;P1;durP1;ratioP1;P2;durP2;ratioP2
4585;SDS011;2305;50.118;8.952;2023-12-04T00:02:06;15.17;;;7.27;;
4585;SDS011;2305;50.118;8.952;2023-12-04T00:04:35;16.40;;;7.70;;
4585;SDS011;2305;50.118;8.952;2023-12-04T00:07:07;16.13;;;6.90;;
4585;SDS011;2305;50.118;8.952;2023-12-04T00:09:35;20.03;;;7.87;;
4585;SDS011;2305;50.118;8.952;2023-12-04T00:12:03;13.07;;;6.50;;
4585;SDS011;2305;50.118;8.952;2023-12-04T00:14:31;14.67;;;6.80;;
4585;SDS011;2305;50.118;8.952;2023-12-04T00:17:03;12.47;;;6.40;;
4585;SDS011;2305;50.118;8.952;2023-12-04T00:19:31;15.53;;;8.17;;
4585;SDS011;2305;50.118;8.952;2023-12-04T00:22:01;11.43;;;6.67;;
4585;SDS011;2305;50.118;8.952;2023-12-04T00:24:32;12.60;;;7.10;;
4585;SDS011;2305;50.118;8.952;2023-12-04T00:27:02;14.80;;;7.90;;
4585;SDS011;2305;50.118;8.952;2023-12-04T00:29:30;14.77;;;7.17;;
4585;SDS011;2305;50.118;8.952;2023-12-04T00:31:59;15.50;;;8.10;;
4585;SDS011;2305;50.118;8.952;2023-12-04T00:34:27;13.17;;;7.47;;
4585;SDS011;2305;50.118;8.952;2023-12-04T00:36:55;15.27;;;7.70;;
4585;SDS011;2305;50.118;8.952;2023-12-04T00:39:28;22.43;;;7.20;;
4585;SDS011;2305;50.118;8.952;2023-12-04T00:41:59;13.30;;;6.67;;
4585;SDS011;2305;50.118;8.952;2023-12-04T00:44:27;13.33;;;7.90;;
4585;SDS011;2305;50.118;8.952;2023-12-04T00:46:55;13.10;;;6.63;;
4585;SDS011;2305;50.118;8.952;2023-12-04T00:49:24;14.63;;;7.40;;
4585;SDS011;2305;50.118;8.952;2023-12-04T00:51:52;11.63;;;6.30;;
4585;SDS011;2305;50.118;8.952;2023-12-04T00:54:20;14.13;;;7.00;;
4585;SDS011;2305;50.118;8.952;2023-12-04T00:56:48;9.33;;;5.50;;
4585;SDS011;2305;50.118;8.952;2023-12-04T00:59:18;11.10;;;6.43;;
4585;SDS011;2305;50.118;8.952;2023-12-04T01:01:47;14.00;;;7.10;;
4585;SDS011;2305;50.118;8.952;2023-12-04T01:04:15;12.80;;;6.90;;
4585;SDS011;2305;50.118;8.952;2023-12-04T01:06:44;14.23;;;6.30;;
4585;SDS011;2305;50.118;8.952;2023-12-04T01:09:12;12.63;;;6.73;;
4585;SDS011;2305;50.118;8.952;2023-12-04T01:11:40;12.17;;;7.17;;
4585;SDS011;2305;50.118;8.952;2023-12-04T01:14:11;14.70;;;6.33;;
4585;SDS011;2305;50.118;8.952;2023-12-04T01:16:43;14.70;;;6.53;;
4585;SDS011;2305;50.118;8.952;2023-12-04T01:19:11;11.37;;;6.10;;
4585;SDS011;2305;50.118;8.952;2023-12-04T01:21:39;18.43;;;6.70;;
4585;SDS011;2305;50.118;8.952;2023-12-04T01:24:07;13.70;;;7.03;;
4585;SDS011;2305;50.118;8.952;2023-12-04T01:26:35;14.10;;;7.30;;
4585;SDS011;2305;50.118;8.952;2023-12-04T01:29:03;16.93;;;8.37;;
4585;SDS011;2305;50.118;8.952;2023-12-04T01:31:31;12.03;;;6.60;;
4585;SDS011;2305;50.118;8.952;2023-12-04T01:34:01;16.77;;;7.60;;
4585;SDS011;2305;50.118;8.952;2023-12-04T01:36:29;18.50;;;7.40;;
4585;SDS011;2305;50.118;8.952;2023-12-04T01:38:58;17.17;;;7.97;;
4585;SDS011;2305;50.118;8.952;2023-12-04T01:41:26;12.97;;;7.20;;
4585;SDS011;2305;50.118;8.952;2023-12-04T01:43:55;18.60;;;7.90;;
4585;SDS011;2305;50.118;8.952;2023-12-04T01:46:24;13.10;;;7.47;;
4585;SDS011;2305;50.118;8.952;2023-12-04T01:48:53;14.27;;;7.23;;
4585;SDS011;2305;50.118;8.952;2023-12-04T01:51:23;17.50;;;7.43;;
4585;SDS011;2305;50.118;8.952;2023-12-04T01:53:54;13.30;;;7.13;;
4585;SDS011;2305;50.118;8.952;2023-12-04T01:56:27;13.50;;;6.40;;
4585;SDS011;2305;50.118;8.952;2023-12-04T01:58:55;12.77;;;6.90;;
4585;SDS011;2305;50.118;8.952;2023-12-04T02:01:26;13.43;;;6.60;;
4585;SDS011;2305;50.118;8.952;2023-12-04T02:03:55;17.40;;;8.37;;
4585;SDS011;2305;50.118;8.952;2023-12-04T02:06:31;11.80;;;5.93;;
4585;SDS011;2305;50.118;8.952;2023-12-04T02:08:59;16.03;;;7.53;;
4585;SDS011;2305;50.118;8.952;2023-12-04T02:11:27;14.27;;;6.80;;
4585;SDS011;2305;50.118;8.952;2023-12-04T02:13:57;14.80;;;7.20;;
4585;SDS011;2305;50.118;8.952;2023-12-04T02:16:25;12.53;;;7.43;;
4585;SDS011;2305;50.118;8.952;2023-12-04T02:18:56;12.03;;;5.77;;
4585;SDS011;2305;50.118;8.952;2023-12-04T02:21:25;12.10;;;7.30;;
4585;SDS011;2305;50.118;8.952;2023-12-04T02:23:55;12.10;;;6.53;;
4585;SDS011;2305;50.118;8.952;2023-12-04T02:26:24;13.40;;;6.47;;
4585;SDS011;2305;50.118;8.952;2023-12-04T02:28:58;14.70;;;7.03;;
4585;SDS011;2305;50.118;8.952;2023-12-04T02:31:32;12.57;;;6.80;;
4585;SDS011;2305;50.118;8.952;2023-12-04T02:34:02;13.60;;;6.97;;
4585;SDS011;2305;50.118;8.952;2023-12-04T02:36:36;13.17;;;7.17;;
4585;SDS011;2305;50.118;8.952;2023-12-04T02:39:08;11.20;;;6.60;;
4585;SDS011;2305;50.118;8.952;2023-12-04T02:41:37;13.43;;;6.90;;
4585;SDS011;2305;50.118;8.952;2023-12-04T02:44:05;12.63;;;6.60;;
4585;SDS011;2305;50.118;8.952;2023-12-04T02:46:34;12.00;;;6.50;;
4585;SDS011;2305;50.118;8.952;2023-12-04T02:49:01;15.07;;;7.33;;
4585;SDS011;2305;50.118;8.952;2023-12-04T02:51:30;13.00;;;6.80;;
4585;SDS011;2305;50.118;8.952;2023-12-04T02:53:59;15.43;;;7.17;;
4585;SDS011;2305;50.118;8.952;2023-12-04T02:56:29;12.83;;;6.27;;
4585;SDS011;2305;50.118;8.952;2023-12-04T02:58:58;12.10;;;6.13;;
4585;SDS011;2305;50.118;8.952;2023-12-04T03:01:26;9.00;;;5.43;;
4585;SDS011;2305;50.118;8.952;2023-12-04T03:03:54;11.87;;;7.30;;
4585;SDS011;2305;50.118;8.952;2023-12-04T03:06:22;11.67;;;6.40;;
4585;SDS011;2305;50.118;8.952;2023-12-04T03:08:51;13.50;;;6.57;;
4585;SDS011;2305;50.118;8.952;2023-12-04T03:11:19;14.57;;;6.87;;
4585;SDS011;2305;50.118;8.952;2023-12-04T03:13:48;12.00;;;6.37;;
4585;SDS011;2305;50.118;8.952;2023-12-04T03:16:16;16.83;;;7.33;;
4585;SDS011;2305;50.118;8.952;2023-12-04T03:18:45;17.37;;;7.50;;
4585;SDS011;2305;50.118;8.952;2023-12-04T03:21:14;16.07;;;8.30;;
4585;SDS011;2305;50.118;8.952;2023-12-04T03:23:47;14.13;;;6.33;;
4585;SDS011;2305;50.118;8.952;2023-12-04T03:26:16;10.17;;;5.97;;
4585;SDS011;2305;50.118;8.952;2023-12-04T03:28:46;15.40;;;7.23;;
4585;SDS011;2305;50.118;8.952;2023-12-04T03:31:16;11.17;;;6.10;;
4585;SDS011;2305;50.118;8.952;2023-12-04T03:33:44;14.10;;;7.30;;
4585;SDS011;2305;50.118;8.952;2023-12-04T03:36:12;16.57;;;7.43;;
4585;SDS011;2305;50.118;8.952;2023-12-04T03:38:40;17.50;;;7.40;;
4585;SDS011;2305;50.118;8.952;2023-12-04T03:41:12;12.33;;;6.40;;
4585;SDS011;2305;50.118;8.952;2023-12-04T03:43:43;14.03;;;7.20;;
4585;SDS011;2305;50.118;8.952;2023-12-04T03:46:12;12.30;;;6.60;;
4585;SDS011;2305;50.118;8.952;2023-12-04T03:48:47;13.13;;;6.87;;
4585;SDS011;2305;50.118;8.952;2023-12-04T03:51:16;13.60;;;6.60;;
4585;SDS011;2305;50.118;8.952;2023-12-04T03:53:43;12.53;;;6.63;;
4585;SDS011;2305;50.118;8.952;2023-12-04T03:56:11;11.57;;;6.53;;
4585;SDS011;2305;50.118;8.952;2023-12-04T03:58:39;14.60;;;8.30;;
4585;SDS011;2305;50.118;8.952;2023-12-04T04:01:08;15.13;;;7.10;;
4585;SDS011;2305;50.118;8.952;2023-12-04T04:03:36;22.53;;;7.07;;
4585;SDS011;2305;50.118;8.952;2023-12-04T04:06:08;15.43;;;7.40;;
4585;SDS011;2305;50.118;8.952;2023-12-04T04:08:39;13.03;;;7.47;;
4585;SDS011;2305;50.118;8.952;2023-12-04T04:11:07;14.57;;;7.67;;
4585;SDS011;2305;50.118;8.952;2023-12-04T04:13:36;14.60;;;7.90;;
4585;SDS011;2305;50.118;8.952;2023-12-04T04:16:06;13.33;;;7.40;;
4585;SDS011;2305;50.118;8.952;2023-12-04T04:18:35;15.23;;;7.50;;
4585;SDS011;2305;50.118;8.952;2023-12-04T04:21:07;12.50;;;6.93;;
4585;SDS011;2305;50.118;8.952;2023-12-04T04:23:35;15.87;;;8.03;;
4585;SDS011;2305;50.118;8.952;2023-12-04T04:26:03;13.20;;;6.20;;
4585;SDS011;2305;50.118;8.952;2023-12-04T04:28:32;15.47;;;7.23;;
4585;SDS011;2305;50.118;8.952;2023-12-04T04:31:00;13.50;;;6.73;;
4585;SDS011;2305;50.118;8.952;2023-12-04T04:33:30;16.13;;;6.47;;
4585;SDS011;2305;50.118;8.952;2023-12-04T04:35:59;12.93;;;7.30;;
4585;SDS011;2305;50.118;8.952;2023-12-04T04:38:29;17.30;;;8.00;;
4585;SDS011;2305;50.118;8.952;2023-12-04T04:40:57;15.43;;;7.87;;
4585;SDS011;2305;50.118;8.952;2023-12-04T04:43:25;15.20;;;6.53;;
4585;SDS011;2305;50.118;8.952;2023-12-04T04:45:54;17.07;;;8.07;;
4585;SDS011;2305;50.118;8.952;2023-12-04T04:48:22;16.40;;;7.77;;
4585;SDS011;2305;50.118;8.952;2023-12-04T04:50:50;16.40;;;8.33;;
4585;SDS011;2305;50.118;8.952;2023-12-04T04:53:19;14.30;;;7.53;;
4585;SDS011;2305;50.118;8.952;2023-12-04T04:55:49;17.37;;;8.67;;
4585;SDS011;2305;50.118;8.952;2023-12-04T04:58:20;15.50;;;7.53;;
4585;SDS011;2305;50.118;8.952;2023-12-04T05:00:48;14.03;;;7.70;;
4585;SDS011;2305;50.118;8.952;2023-12-04T05:03:17;12.97;;;6.93;;
4585;SDS011;2305;50.118;8.952;2023-12-04T05:05:47;16.77;;;9.07;;
4585;SDS011;2305;50.118;8.952;2023-12-04T05:08:15;17.80;;;7.80;;
4585;SDS011;2305;50.118;8.952;2023-12-04T05:10:43;18.57;;;8.90;;
4585;SDS011;2305;50.118;8.952;2023-12-04T05:13:17;17.30;;;8.53;;
4585;SDS011;2305;50.118;8.952;2023-12-04T05:15:45;18.23;;;9.00;;
4585;SDS011;2305;50.118;8.952;2023-12-04T05:18:13;17.50;;;9.37;;
4585;SDS011;2305;50.118;8.952;2023-12-04T05:20:43;16.13;;;8.97;;
4585;SDS011;2305;50.118;8.952;2023-12-04T05:23:11;16.90;;;8.77;;
4585;SDS011;2305;50.118;8.952;2023-12-04T05:25:39;14.20;;;8.43;;
4585;SDS011;2305;50.118;8.952;2023-12-04T05:28:20;18.00;;;9.00;;
4585;SDS011;2305;50.118;8.952;2023-12-04T05:30:48;17.63;;;8.97;;
4585;SDS011;2305;50.118;8.952;2023-12-04T05:33:16;15.90;;;8.20;;
4585;SDS011;2305;50.118;8.952;2023-12-04T05:35:44;19.90;;;8.97;;
4585;SDS011;2305;50.118;8.952;2023-12-04T05:38:12;15.93;;;7.93;;
4585;SDS011;2305;50.118;8.952;2023-12-04T05:40:40;20.23;;;9.63;;
4585;SDS011;2305;50.118;8.952;2023-12-04T05:43:08;12.70;;;8.40;;
4585;SDS011;2305;50.118;8.952;2023-12-04T05:45:38;16.90;;;7.90;;
4585;SDS011;2305;50.118;8.952;2023-12-04T05:48:06;12.83;;;7.43;;
4585;SDS011;2305;50.118;8.952;2023-12-04T05:50:34;22.40;;;9.13;;
4585;SDS011;2305;50.118;8.952;2023-12-04T05:53:02;16.97;;;8.70;;
4585;SDS011;2305;50.118;8.952;2023-12-04T05:55:32;16.37;;;8.47;;
4585;SDS011;2305;50.118;8.952;2023-12-04T05:58:00;16.43;;;9.30;;
4585;SDS011;2305;50.118;8.952;2023-12-04T06:00:28;16.27;;;9.00;;
4585;SDS011;2305;50.118;8.952;2023-12-04T06:02:57;17.43;;;9.70;;
4585;SDS011;2305;50.118;8.952;2023-12-04T06:05:26;19.20;;;9.40;;
4585;SDS011;2305;50.118;8.952;2023-12-04T06:07:54;18.20;;;8.43;;
4585;SDS011;2305;50.118;8.952;2023-12-04T06:10:25;14.77;;;9.07;;
4585;SDS011;2305;50.118;8.952;2023-12-04T06:12:53;17.97;;;8.33;;
4585;SDS011;2305;50.118;8.952;2023-12-04T06:15:23;18.50;;;9.63;;
4585;SDS011;2305;50.118;8.952;2023-12-04T06:17:51;19.03;;;10.00;;
4585;SDS011;2305;50.118;8.952;2023-12-04T06:20:21;16.00;;;8.63;;
4585;SDS011;2305;50.118;8.952;2023-12-04T06:22:50;17.07;;;9.00;;
4585;SDS011;2305;50.118;8.952;2023-12-04T06:25:20;12.80;;;7.47;;
4585;SDS011;2305;50.118;8.952;2023-12-04T06:27:49;16.30;;;7.70;;
4585;SDS011;2305;50.118;8.952;2023-12-04T06:30:18;15.83;;;8.47;;
4585;SDS011;2305;50.118;8.952;2023-12-04T06:32:49;18.47;;;8.27;;
4585;SDS011;2305;50.118;8.952;2023-12-04T06:35:18;17.07;;;7.90;;
4585;SDS011;2305;50.118;8.952;2023-12-04T06:37:52;20.90;;;8.07;;
4585;SDS011;2305;50.118;8.952;2023-12-04T06:40:22;15.83;;;8.10;;
4585;SDS011;2305;50.118;8.952;2023-12-04T06:42:50;20.57;;;7.37;;
4585;SDS011;2305;50.118;8.952;2023-12-04T06:45:19;14.93;;;7.80;;
4585;SDS011;2305;50.118;8.952;2023-12-04T06:47:48;13.57;;;7.53;;
4585;SDS011;2305;50.118;8.952;2023-12-04T06:50:19;16.30;;;8.27;;
4585;SDS011;2305;50.118;8.952;2023-12-04T06:52:48;16.73;;;8.90;;
4585;SDS011;2305;50.118;8.952;2023-12-04T06:55:16;15.73;;;8.53;;
4585;SDS011;2305;50.118;8.952;2023-12-04T06:57:45;19.27;;;9.50;;
4585;SDS011;2305;50.118;8.952;2023-12-04T07:00:13;18.07;;;8.60;;
4585;SDS011;2305;50.118;8.952;2023-12-04T07:02:49;14.93;;;8.70;;
4585;SDS011;2305;50.118;8.952;2023-12-04T07:05:19;18.40;;;7.87;;
4585;SDS011;2305;50.118;8.952;2023-12-04T07:07:49;16.77;;;8.23;;
4585;SDS011;2305;50.118;8.952;2023-12-04T07:10:17;16.57;;;8.17;;
4585;SDS011;2305;50.118;8.952;2023-12-04T07:12:48;16.07;;;7.40;;
4585;SDS011;2305;50.118;8.952;2023-12-04T07:15:18;15.37;;;8.70;;
4585;SDS011;2305;50.118;8.952;2023-12-04T07:17:47;17.73;;;8.63;;
4585;SDS011;2305;50.118;8.952;2023-12-04T07:20:15;19.30;;;8.20;;
4585;SDS011;2305;50.118;8.952;2023-12-04T07:22:44;19.47;;;8.70;;
4585;SDS011;2305;50.118;8.952;2023-12-04T07:25:13;20.33;;;9.63;;
4585;SDS011;2305;50.118;8.952;2023-12-04T07:27:43;19.63;;;9.90;;
4585;SDS011;2305;50.118;8.952;2023-12-04T07:30:13;17.90;;;9.13;;
4585;SDS011;2305;50.118;8.952;2023-12-04T07:32:44;19.83;;;10.20;;
4585;SDS011;2305;50.118;8.952;2023-12-04T07:35:13;20.37;;;8.07;;
4585;SDS011;2305;50.118;8.952;2023-12-04T07:37:41;19.93;;;9.30;;
4585;SDS011;2305;50.118;8.952;2023-12-04T07:40:09;15.30;;;7.97;;
4585;SDS011;2305;50.118;8.952;2023-12-04T07:42:40;19.30;;;9.20;;
4585;SDS011;2305;50.118;8.952;2023-12-04T07:45:09;18.77;;;8.67;;
4585;SDS011;2305;50.118;8.952;2023-12-04T07:47:38;17.43;;;8.40;;
4585;SDS011;2305;50.118;8.952;2023-12-04T07:50:09;14.40;;;7.53;;
4585;SDS011;2305;50.118;8.952;2023-12-04T07:52:38;22.63;;;9.50;;
4585;SDS011;2305;50.118;8.952;2023-12-04T07:55:07;18.30;;;8.40;;
4585;SDS011;2305;50.118;8.952;2023-12-04T07:57:41;17.30;;;8.70;;
4585;SDS011;2305;50.118;8.952;2023-12-04T08:00:09;20.37;;;9.57;;
4585;SDS011;2305;50.118;8.952;2023-12-04T08:02:38;15.13;;;6.77;;
4585;SDS011;2305;50.118;8.952;2023-12-04T08:05:07;15.23;;;8.10;;
4585;SDS011;2305;50.118;8.952;2023-12-04T08:07:37;14.47;;;7.10;;
4585;SDS011;2305;50.118;8.952;2023-12-04T08:10:08;15.33;;;7.33;;
4585;SDS011;2305;50.118;8.952;2023-12-04T08:12:36;12.50;;;6.60;;
4585;SDS011;2305;50.118;8.952;2023-12-04T08:15:07;10.27;;;6.67;;
4585;SDS011;2305;50.118;8.952;2023-12-04T08:17:36;14.23;;;7.13;;
4585;SDS011;2305;50.118;8.952;2023-12-04T08:20:06;10.87;;;6.30;;
4585;SDS011;2305;50.118;8.952;2023-12-04T08:22:49;13.20;;;7.00;;
4585;SDS011;2305;50.118;8.952;2023-12-04T08:25:17;15.10;;;7.90;;
4585;SDS011;2305;50.118;8.952;2023-12-04T08:27:45;10.47;;;6.30;;
4585;SDS011;2305;50.118;8.952;2023-12-04T08:30:15;13.17;;;6.40;;
4585;SDS011;2305;50.118;8.952;2023-12-04T08:32:44;12.90;;;6.87;;
4585;SDS011;2305;50.118;8.952;2023-12-04T08:35:13;12.27;;;6.63;;
4585;SDS011;2305;50.118;8.952;2023-12-04T08:37:41;13.20;;;7.63;;
4585;SDS011;2305;50.118;8.952;2023-12-04T08:40:10;9.93;;;5.30;;
4585;SDS011;2305;50.118;8.952;2023-12-04T08:42:39;10.23;;;6.03;;
4585;SDS011;2305;50.118;8.952;2023-12-04T08:45:08;12.33;;;6.20;;
4585;SDS011;2305;50.118;8.952;2023-12-04T08:47:40;14.63;;;7.10;;
4585;SDS011;2305;50.118;8.952;2023-12-04T08:50:08;14.53;;;6.30;;
4585;SDS011;2305;50.118;8.952;2023-12-04T08:52:36;12.73;;;6.87;;
4585;SDS011;2305;50.118;8.952;2023-12-04T08:55:08;11.60;;;6.70;;
4585;SDS011;2305;50.118;8.952;2023-12-04T08:57:36;11.77;;;6.90;;
4585;SDS011;2305;50.118;8.952;2023-12-04T09:00:04;16.43;;;5.67;;
4585;SDS011;2305;50.118;8.952;2023-12-04T09:02:35;12.57;;;6.27;;
4585;SDS011;2305;50.118;8.952;2023-12-04T09:05:16;13.30;;;6.67;;
4585;SDS011;2305;50.118;8.952;2023-12-04T09:07:44;12.90;;;7.03;;
4585;SDS011;2305;50.118;8.952;2023-12-04T09:10:16;11.23;;;6.13;;
4585;SDS011;2305;50.118;8.952;2023-12-04T09:13:04;14.03;;;7.20;;
4585;SDS011;2305;50.118;8.952;2023-12-04T09:15:32;10.40;;;6.63;;
4585;SDS011;2305;50.118;8.952;2023-12-04T09:18:01;19.80;;;6.30;;
4585;SDS011;2305;50.118;8.952;2023-12-04T09:20:30;11.63;;;7.10;;
4585;SDS011;2305;50.118;8.952;2023-12-04T09:22:58;14.63;;;7.37;;
4585;SDS011;2305;50.118;8.952;2023-12-04T09:25:34;10.03;;;6.60;;
4585;SDS011;2305;50.118;8.952;2023-12-04T09:28:02;11.30;;;6.40;;
4585;SDS011;2305;50.118;8.952;2023-12-04T09:30:31;11.73;;;6.10;;
4585;SDS011;2305;50.118;8.952;2023-12-04T09:33:00;16.00;;;7.80;;
4585;SDS011;2305;50.118;8.952;2023-12-04T09:35:28;12.80;;;6.70;;
4585;SDS011;2305;50.118;8.952;2023-12-04T09:37:57;12.53;;;6.43;;
4585;SDS011;2305;50.118;8.952;2023-12-04T09:40:26;11.00;;;6.30;;
4585;SDS011;2305;50.118;8.952;2023-12-04T09:42:55;11.80;;;6.03;;
4585;SDS011;2305;50.118;8.952;2023-12-04T09:45:24;11.93;;;7.10;;
4585;SDS011;2305;50.118;8.952;2023-12-04T09:47:53;12.80;;;6.47;;
4585;SDS011;2305;50.118;8.952;2023-12-04T09:50:23;10.57;;;6.87;;
4585;SDS011;2305;50.118;8.952;2023-12-04T09:52:53;15.27;;;7.30;;
4585;SDS011;2305;50.118;8.952;2023-12-04T09:55:24;14.67;;;7.27;;
4585;SDS011;2305;50.118;8.952;2023-12-04T09:57:56;11.23;;;6.53;;
4585;SDS011;2305;50.118;8.952;2023-12-04T10:00:27;15.73;;;7.10;;
4585;SDS011;2305;50.118;8.952;2023-12-04T10:02:56;12.40;;;6.43;;
4585;SDS011;2305;50.118;8.952;2023-12-04T10:05:24;12.90;;;6.53;;
4585;SDS011;2305;50.118;8.952;2023-12-04T10:07:53;15.23;;;6.10;;
4585;SDS011;2305;50.118;8.952;2023-12-04T10:10:22;14.43;;;7.33;;
4585;SDS011;2305;50.118;8.952;2023-12-04T10:12:51;13.70;;;7.07;;
4585;SDS011;2305;50.118;8.952;2023-12-04T10:15:21;12.30;;;7.67;;
4585;SDS011;2305;50.118;8.952;2023-12-04T10:17:50;11.47;;;6.23;;
4585;SDS011;2305;50.118;8.952;2023-12-04T10:20:23;11.60;;;6.57;;
4585;SDS011;2305;50.118;8.952;2023-12-04T10:22:52;10.57;;;6.43;;
4585;SDS011;2305;50.118;8.952;2023-12-04T10:25:27;15.33;;;6.57;;
4585;SDS011;2305;50.118;8.952;2023-12-04T10:28:07;11.80;;;6.37;;
4585;SDS011;2305;50.118;8.952;2023-12-04T10:30:37;11.83;;;6.60;;
4585;SDS011;2305;50.118;8.952;2023-12-04T10:33:08;12.00;;;6.10;;
4585;SDS011;2305;50.118;8.952;2023-12-04T10:35:36;12.20;;;6.97;;
4585;SDS011;2305;50.118;8.952;2023-12-04T10:38:05;11.00;;;5.50;;
4585;SDS011;2305;50.118;8.952;2023-12-04T10:40:35;11.00;;;6.53;;
4585;SDS011;2305;50.118;8.952;2023-12-04T10:43:14;17.10;;;6.37;;
4585;SDS011;2305;50.118;8.952;2023-12-04T10:45:45;11.97;;;6.20;;
4585;SDS011;2305;50.118;8.952;2023-12-04T10:48:16;10.00;;;5.13;;
4585;SDS011;2305;50.118;8.952;2023-12-04T10:50:47;8.93;;;5.27;;
4585;SDS011;2305;50.118;8.952;2023-12-04T10:53:17;9.93;;;5.70;;
4585;SDS011;2305;50.118;8.952;2023-12-04T10:55:47;9.80;;;4.97;;
4585;SDS011;2305;50.118;8.952;2023-12-04T10:58:18;9.47;;;5.30;;
4585;SDS011;2305;50.118;8.952;2023-12-04T11:00:49;11.30;;;5.97;;
4585;SDS011;2305;50.118;8.952;2023-12-04T11:03:27;8.77;;;5.43;;
4585;SDS011;2305;50.118;8.952;2023-12-04T11:06:00;9.90;;;5.77;;
4585;SDS011;2305;50.118;8.952;2023-12-04T11:08:33;8.43;;;4.50;;
4585;SDS011;2305;50.118;8.952;2023-12-04T11:11:04;8.60;;;5.53;;
4585;SDS011;2305;50.118;8.952;2023-12-04T11:13:37;8.13;;;4.60;;
4585;SDS011;2305;50.118;8.952;2023-12-04T11:16:09;10.03;;;6.40;;
4585;SDS011;2305;50.118;8.952;2023-12-04T11:18:43;8.67;;;5.23;;
4585;SDS011;2305;50.118;8.952;2023-12-04T11:21:16;13.33;;;5.17;;
4585;SDS011;2305;50.118;8.952;2023-12-04T11:23:48;8.50;;;5.27;;
4585;SDS011;2305;50.118;8.952;2023-12-04T11:26:16;10.10;;;5.10;;
4585;SDS011;2305;50.118;8.952;2023-12-04T11:28:46;8.53;;;5.10;;
4585;SDS011;2305;50.118;8.952;2023-12-04T11:31:15;8.23;;;5.07;;
4585;SDS011;2305;50.118;8.952;2023-12-04T11:33:46;9.57;;;5.30;;
4585;SDS011;2305;50.118;8.952;2023-12-04T11:36:14;9.20;;;5.97;;
4585;SDS011;2305;50.118;8.952;2023-12-04T11:38:46;12.97;;;5.80;;
4585;SDS011;2305;50.118;8.952;2023-12-04T11:41:16;10.30;;;5.73;;
4585;SDS011;2305;50.118;8.952;2023-12-04T11:43:54;8.20;;;5.20;;
4585;SDS011;2305;50.118;8.952;2023-12-04T11:46:25;7.20;;;5.00;;
4585;SDS011;2305;50.118;8.952;2023-12-04T11:48:54;9.30;;;5.73;;
4585;SDS011;2305;50.118;8.952;2023-12-04T11:54:18;10.43;;;5.90;;
4585;SDS011;2305;50.118;8.952;2023-12-04T11:56:59;9.73;;;5.93;;
4585;SDS011;2305;50.118;8.952;2023-12-04T11:59:30;11.10;;;5.97;;
4585;SDS011;2305;50.118;8.952;2023-12-04T12:02:07;8.73;;;5.73;;
4585;SDS011;2305;50.118;8.952;2023-12-04T12:04:37;9.90;;;5.67;;
4585;SDS011;2305;50.118;8.952;2023-12-04T12:07:05;11.63;;;7.43;;
4585;SDS011;2305;50.118;8.952;2023-12-04T12:09:35;8.53;;;5.77;;
4585;SDS011;2305;50.118;8.952;2023-12-04T12:12:08;14.40;;;6.10;;
4585;SDS011;2305;50.118;8.952;2023-12-04T12:14:40;9.57;;;5.20;;
4585;SDS011;2305;50.118;8.952;2023-12-04T12:17:08;8.90;;;5.47;;
4585;SDS011;2305;50.118;8.952;2023-12-04T12:19:36;11.37;;;4.90;;
4585;SDS011;2305;50.118;8.952;2023-12-04T12:22:05;9.13;;;5.10;;
4585;SDS011;2305;50.118;8.952;2023-12-04T12:24:36;7.00;;;4.67;;
4585;SDS011;2305;50.118;8.952;2023-12-04T12:27:05;10.37;;;5.27;;
4585;SDS011;2305;50.118;8.952;2023-12-04T12:29:34;12.17;;;5.10;;
4585;SDS011;2305;50.118;8.952;2023-12-04T12:32:04;9.67;;;5.43;;
4585;SDS011;2305;50.118;8.952;2023-12-04T12:34:32;8.00;;;5.27;;
4585;SDS011;2305;50.118;8.952;2023-12-04T12:37:03;8.83;;;5.13;;
4585;SDS011;2305;50.118;8.952;2023-12-04T12:39:32;7.93;;;4.17;;
4585;SDS011;2305;50.118;8.952;2023-12-04T12:42:02;9.50;;;5.17;;
4585;SDS011;2305;50.118;8.952;2023-12-04T12:44:41;8.90;;;4.97;;
4585;SDS011;2305;50.118;8.952;2023-12-04T12:47:11;8.60;;;4.77;;
4585;SDS011;2305;50.118;8.952;2023-12-04T12:49:43;9.53;;;5.40;;
4585;SDS011;2305;50.118;8.952;2023-12-04T12:52:12;8.53;;;4.90;;
4585;SDS011;2305;50.118;8.952;2023-12-04T12:54:43;7.57;;;5.17;;
4585;SDS011;2305;50.118;8.952;2023-12-04T12:57:12;10.17;;;5.37;;
4585;SDS011;2305;50.118;8.952;2023-12-04T12:59:40;7.70;;;4.70;;
4585;SDS011;2305;50.118;8.952;2023-12-04T13:02:12;11.53;;;5.83;;
4585;SDS011;2305;50.118;8.952;2023-12-04T13:04:41;8.70;;;5.10;;
4585;SDS011;2305;50.118;8.952;2023-12-04T13:07:11;11.43;;;5.93;;
4585;SDS011;2305;50.118;8.952;2023-12-04T13:09:52;14.60;;;6.20;;
4585;SDS011;2305;50.118;8.952;2023-12-04T13:12:33;9.30;;;4.80;;
4585;SDS011;2305;50.118;8.952;2023-12-04T13:15:02;12.47;;;6.40;;
4585;SDS011;2305;50.118;8.952;2023-12-04T13:17:35;10.83;;;6.00;;
4585;SDS011;2305;50.118;8.952;2023-12-04T13:20:04;12.90;;;5.53;;
4585;SDS011;2305;50.118;8.952;2023-12-04T13:22:40;13.47;;;6.47;;
4585;SDS011;2305;50.118;8.952;2023-12-04T13:25:08;12.20;;;6.33;;
4585;SDS011;2305;50.118;8.952;2023-12-04T13:27:39;9.60;;;5.20;;
4585;SDS011;2305;50.118;8.952;2023-12-04T13:30:09;12.23;;;6.50;;
4585;SDS011;2305;50.118;8.952;2023-12-04T13:32:42;12.57;;;5.90;;
4585;SDS011;2305;50.118;8.952;2023-12-04T13:35:11;10.87;;;6.07;;
4585;SDS011;2305;50.118;8.952;2023-12-04T13:37:39;9.40;;;6.33;;
4585;SDS011;2305;50.118;8.952;2023-12-04T13:40:07;10.27;;;5.53;;
4585;SDS011;2305;50.118;8.952;2023-12-04T13:42:44;11.20;;;5.73;;
4585;SDS011;2305;50.118;8.952;2023-12-04T13:45:32;9.10;;;5.10;;
4585;SDS011;2305;50.118;8.952;2023-12-04T13:48:04;8.73;;;5.70;;
4585;SDS011;2305;50.118;8.952;2023-12-04T13:50:33;10.37;;;5.67;;
4585;SDS011;2305;50.118;8.952;2023-12-04T13:53:01;14.43;;;6.30;;
4585;SDS011;2305;50.118;8.952;2023-12-04T13:55:29;12.70;;;6.30;;
4585;SDS011;2305;50.118;8.952;2023-12-04T13:58:14;10.47;;;6.10;;
4585;SDS011;2305;50.118;8.952;2023-12-04T14:01:04;10.60;;;5.90;;
4585;SDS011;2305;50.118;8.952;2023-12-04T14:03:43;10.23;;;5.57;;
4585;SDS011;2305;50.118;8.952;2023-12-04T14:06:12;11.10;;;6.23;;
4585;SDS011;2305;50.118;8.952;2023-12-04T14:08:42;10.93;;;6.00;;
4585;SDS011;2305;50.118;8.952;2023-12-04T14:11:12;9.27;;;5.60;;
4585;SDS011;2305;50.118;8.952;2023-12-04T14:13:41;10.43;;;6.03;;
4585;SDS011;2305;50.118;8.952;2023-12-04T14:16:10;13.23;;;6.80;;
4585;SDS011;2305;50.118;8.952;2023-12-04T14:18:38;11.10;;;6.10;;
4585;SDS011;2305;50.118;8.952;2023-12-04T14:21:09;10.20;;;6.20;;
4585;SDS011;2305;50.118;8.952;2023-12-04T14:23:40;9.53;;;5.33;;
4585;SDS011;2305;50.118;8.952;2023-12-04T14:26:08;11.40;;;6.17;;
4585;SDS011;2305;50.118;8.952;2023-12-04T14:28:39;9.40;;;5.60;;
4585;SDS011;2305;50.118;8.952;2023-12-04T14:31:09;9.33;;;5.50;;
4585;SDS011;2305;50.118;8.952;2023-12-04T14:33:38;13.30;;;6.10;;
4585;SDS011;2305;50.118;8.952;2023-12-04T14:36:11;11.70;;;5.90;;
4585;SDS011;2305;50.118;8.952;2023-12-04T14:38:40;12.93;;;7.00;;
4585;SDS011;2305;50.118;8.952;2023-12-04T14:41:09;10.60;;;5.60;;
4585;SDS011;2305;50.118;8.952;2023-12-04T14:43:37;10.83;;;6.03;;
4585;SDS011;2305;50.118;8.952;2023-12-04T14:46:08;10.70;;;5.40;;
4585;SDS011;2305;50.118;8.952;2023-12-04T14:48:38;10.13;;;5.57;;
4585;SDS011;2305;50.118;8.952;2023-12-04T14:51:08;14.60;;;5.43;;
4585;SDS011;2305;50.118;8.952;2023-12-04T14:53:55;11.77;;;6.10;;
4585;SDS011;2305;50.118;8.952;2023-12-04T14:56:42;10.90;;;6.20;;
4585;SDS011;2305;50.118;8.952;2023-12-04T14:59:43;8.67;;;5.77;;
4585;SDS011;2305;50.118;8.952;2023-12-04T15:02:49;11.23;;;6.27;;
4585;SDS011;2305;50.118;8.952;2023-12-04T15:05:34;9.10;;;5.60;;
4585;SDS011;2305;50.118;8.952;2023-12-04T15:08:27;14.70;;;5.70;;
4585;SDS011;2305;50.118;8.952;2023-12-04T15:11:28;12.10;;;5.73;;
4585;SDS011;2305;50.118;8.952;2023-12-04T15:14:18;14.00;;;7.00;;
4585;SDS011;2305;50.118;8.952;2023-12-04T15:16:59;13.93;;;6.43;;
4585;SDS011;2305;50.118;8.952;2023-12-04T15:19:40;12.27;;;6.70;;
4585;SDS011;2305;50.118;8.952;2023-12-04T15:22:27;9.60;;;6.40;;
4585;SDS011;2305;50.118;8.952;2023-12-04T15:25:00;10.70;;;7.40;;
4585;SDS011;2305;50.118;8.952;2023-12-04T15:27:30;16.37;;;7.00;;